Time;durP1;ratioP1;P1;durP2;ratioP2;P2;SDS_P1;SDS_P2;PMS_P1;PMS_P2;Temp;Humidity;BMP_temperature;BMP_pressure;BME280_temperature;BME280_humidity;BME280_pressure;Samples;Min_cycle;Max_cycle;Signal;HPM_P1;HPM_P2
2021/08/07 00:00:59;;;;;;;12.68;11.60;;;17.10;83.30;;;;;;5036522;29;20978;-73
2021/08/07 00:03:32;;;;;;;12.65;11.55;;;17.10;83.20;;;;;;5048414;29;20044;-73
2021/08/07 00:06:15;;;;;;;12.63;11.38;;;17.00;83.00;;;;;;5048802;29;20851;-72
2021/08/07 00:08:48;;;;;;;12.40;11.40;;;17.00;83.80;;;;;;5046096;29;20052;-73
2021/08/07 00:11:20;;;;;;;12.55;11.45;;;17.00;83.50;;;;;;5046332;29;20083;-72
2021/08/07 00:13:52;;;;;;;13.20;12.10;;;16.90;83.60;;;;;;5045254;29;20049;-73
2021/08/07 00:16:24;;;;;;;13.05;11.95;;;16.80;83.70;;;;;;5048541;29;20036;-71
2021/08/07 00:18:56;;;;;;;13.07;12.05;;;16.80;84.10;;;;;;5051499;29;20045;-72
2021/08/07 00:21:28;;;;;;;13.65;12.32;;;16.80;83.50;;;;;;5033745;29;20140;-72
2021/08/07 00:24:00;;;;;;;13.10;12.00;;;16.80;83.40;;;;;;5029795;29;20056;-72
2021/08/07 00:26:32;;;;;;;12.65;11.55;;;16.80;84.00;;;;;;5045011;29;20278;-73
2021/08/07 00:29:04;;;;;;;13.07;11.90;;;16.70;83.40;;;;;;5046333;29;20115;-73
2021/08/07 00:31:36;;;;;;;13.40;12.20;;;16.70;83.40;;;;;;5031894;29;20738;-71
2021/08/07 00:34:08;;;;;;;12.43;11.32;;;16.70;83.20;;;;;;5029926;29;20045;-71
2021/08/07 00:36:42;;;;;;;12.68;11.63;;;16.70;83.20;;;;;;5046118;29;20119;-72
2021/08/07 00:39:14;;;;;;;12.63;11.63;;;16.70;83.20;;;;;;5035405;29;20060;-70
2021/08/07 00:41:49;;;;;;;13.32;12.20;;;16.70;83.40;;;;;;5034071;29;20419;-72
2021/08/07 00:44:22;;;;;;;13.27;11.90;;;16.70;84.00;;;;;;5045097;29;20064;-71
2021/08/07 00:46:54;;;;;;;13.00;11.85;;;16.70;83.90;;;;;;5037039;29;20049;-71
2021/08/07 00:49:26;;;;;;;12.75;11.65;;;16.70;83.70;;;;;;5032400;29;20140;-71
2021/08/07 00:51:58;;;;;;;13.23;12.15;;;16.60;83.60;;;;;;5033706;29;20049;-70
2021/08/07 00:54:32;;;;;;;12.82;11.73;;;16.60;83.10;;;;;;5045899;29;20056;-72
2021/08/07 00:57:11;;;;;;;12.90;11.70;;;16.50;83.40;;;;;;5046211;29;20131;-71
2021/08/07 00:59:45;;;;;;;13.32;12.18;;;16.60;83.30;;;;;;5046799;29;20053;-71
2021/08/07 01:02:19;;;;;;;13.90;12.50;;;16.50;83.10;;;;;;5048210;29;20045;-74
2021/08/07 01:05:01;;;;;;;13.77;12.57;;;16.50;83.20;;;;;;5047259;29;20048;-71
2021/08/07 01:07:48;;;;;;;13.50;12.38;;;16.50;82.90;;;;;;5031913;29;20045;-73
2021/08/07 01:10:43;;;;;;;13.65;12.48;;;16.40;83.80;;;;;;5038401;29;20518;-71
2021/08/07 01:13:25;;;;;;;13.20;12.00;;;16.30;84.00;;;;;;5035073;29;20056;-71
2021/08/07 01:16:19;;;;;;;13.63;12.52;;;16.20;84.00;;;;;;5032463;29;20040;-72
2021/08/07 01:18:53;;;;;;;14.45;12.25;;;16.20;83.90;;;;;;5049264;29;20048;-72
2021/08/07 01:21:35;;;;;;;13.38;12.18;;;16.10;83.70;;;;;;5031277;29;20045;-72
2021/08/07 01:24:15;;;;;;;12.80;11.80;;;16.00;84.30;;;;;;5028985;29;20057;-72
2021/08/07 01:26:55;;;;;;;13.25;11.90;;;16.00;84.40;;;;;;5045909;29;20068;-71
2021/08/07 01:29:29;;;;;;;13.10;12.00;;;16.00;84.50;;;;;;5027985;29;20109;-71
2021/08/07 01:32:05;;;;;;;13.52;12.32;;;16.00;84.50;;;;;;5038308;29;20048;-71
2021/08/07 01:34:43;;;;;;;13.02;12.02;;;16.00;84.60;;;;;;5044868;29;20515;-71
2021/08/07 01:37:23;;;;;;;13.50;12.40;;;16.00;84.20;;;;;;5036350;29;20467;-71
2021/08/07 01:40:20;;;;;;;13.70;12.50;;;16.00;84.70;;;;;;5036520;29;20430;-73
2021/08/07 01:42:59;;;;;;;12.20;11.20;;;16.00;83.90;;;;;;5029724;29;20051;-71
2021/08/07 01:45:38;;;;;;;13.57;12.48;;;16.00;83.90;;;;;;5032014;29;20093;-70
2021/08/07 01:48:31;;;;;;;14.23;11.90;;;16.00;83.80;;;;;;5038181;29;20702;-72
2021/08/07 01:51:38;;;;;;;13.93;12.65;;;16.00;83.70;;;;;;5046059;29;20037;-70
2021/08/07 01:54:16;;;;;;;13.30;12.25;;;16.00;84.70;;;;;;5040304;29;20605;-71
2021/08/07 01:56:52;;;;;;;14.18;13.07;;;16.00;84.40;;;;;;5037834;29;20040;-72
2021/08/07 01:59:24;;;;;;;14.50;13.30;;;16.00;84.70;;;;;;5046058;29;20507;-71
2021/08/07 02:01:56;;;;;;;14.20;13.00;;;15.90;84.80;;;;;;5038619;29;20048;-72
2021/08/07 02:04:47;;;;;;;14.02;12.93;;;15.90;84.50;;;;;;5046208;29;20520;-72
2021/08/07 02:07:32;;;;;;;14.13;12.77;;;16.00;84.20;;;;;;5046613;29;20049;-73
2021/08/07 02:10:10;;;;;;;13.88;12.85;;;15.90;84.20;;;;;;5028187;29;20053;-71
2021/08/07 02:12:47;;;;;;;13.57;12.48;;;15.90;83.90;;;;;;5046103;29;20061;-72
2021/08/07 02:15:23;;;;;;;13.38;12.38;;;15.90;84.10;;;;;;5025873;29;20053;-70
2021/08/07 02:18:04;;;;;;;14.20;12.98;;;15.90;83.90;;;;;;5038375;29;20516;-72
2021/08/07 02:20:39;;;;;;;13.38;11.95;;;15.90;83.90;;;;;;5043919;29;20403;-70
2021/08/07 02:23:16;;;;;;;13.00;11.90;;;15.80;83.80;;;;;;5039626;29;20135;-71
2021/08/07 02:25:54;;;;;;;12.77;11.80;;;15.80;83.60;;;;;;5043875;29;20124;-72
2021/08/07 02:28:34;;;;;;;13.10;11.90;;;15.80;83.80;;;;;;5032766;29;20049;-73
2021/08/07 02:31:12;;;;;;;13.23;12.02;;;15.80;83.90;;;;;;5036498;29;20130;-70
2021/08/07 02:33:50;;;;;;;12.73;11.73;;;15.80;83.90;;;;;;5043677;29;20045;-73
2021/08/07 02:36:24;;;;;;;12.98;11.80;;;15.90;84.00;;;;;;5030189;29;20045;-70
2021/08/07 02:39:03;;;;;;;13.32;12.23;;;15.90;84.10;;;;;;5050571;29;20063;-72
2021/08/07 02:41:36;;;;;;;12.50;11.60;;;15.90;83.90;;;;;;5049004;29;20041;-70
2021/08/07 02:44:08;;;;;;;13.15;12.15;;;15.90;84.10;;;;;;5048367;29;20439;-70
2021/08/07 02:46:41;;;;;;;13.98;12.63;;;15.90;84.60;;;;;;5048116;29;20140;-70
2021/08/07 02:49:16;;;;;;;13.35;12.25;;;15.90;84.90;;;;;;5047378;29;20135;-71
2021/08/07 02:51:50;;;;;;;12.90;11.80;;;15.90;84.50;;;;;;5049460;29;20048;-72
2021/08/07 02:54:23;;;;;;;13.20;12.02;;;15.90;84.20;;;;;;5049972;29;20105;-71
2021/08/07 02:56:56;;;;;;;13.35;12.15;;;15.80;84.10;;;;;;5050040;29;20049;-70
2021/08/07 02:59:31;;;;;;;13.82;12.73;;;15.80;84.30;;;;;;5036805;29;20051;-70
2021/08/07 03:02:04;;;;;;;12.63;11.40;;;15.80;84.70;;;;;;5048092;29;20069;-72
2021/08/07 03:04:38;;;;;;;12.90;11.68;;;15.80;84.40;;;;;;5036054;29;20055;-70
2021/08/07 03:07:10;;;;;;;13.98;12.88;;;15.70;84.40;;;;;;5050257;29;20574;-71
2021/08/07 03:09:44;;;;;;;13.55;12.40;;;15.70;85.10;;;;;;5045777;29;20072;-71
2021/08/07 03:12:18;;;;;;;13.73;12.48;;;15.70;85.20;;;;;;5048364;29;20056;-71
2021/08/07 03:14:50;;;;;;;13.57;12.43;;;15.80;85.30;;;;;;5048222;29;20565;-72
2021/08/07 03:17:23;;;;;;;13.73;12.52;;;15.70;84.90;;;;;;5041453;29;20044;-71
2021/08/07 03:19:56;;;;;;;13.48;12.48;;;15.70;85.00;;;;;;5033709;29;20124;-71
2021/08/07 03:22:28;;;;;;;13.70;12.52;;;15.70;84.90;;;;;;5034832;29;20045;-71
2021/08/07 03:25:02;;;;;;;13.85;12.57;;;15.70;85.20;;;;;;5042364;29;20049;-74
2021/08/07 03:27:35;;;;;;;14.70;13.18;;;15.60;84.80;;;;;;5048306;29;20132;-71
2021/08/07 03:30:09;;;;;;;12.95;11.88;;;15.60;84.60;;;;;;5036140;29;20168;-71
2021/08/07 03:32:41;;;;;;;13.25;12.15;;;15.60;84.70;;;;;;5034200;29;20135;-72
2021/08/07 03:35:14;;;;;;;13.70;12.50;;;15.60;84.50;;;;;;5038232;29;20511;-71
2021/08/07 03:37:50;;;;;;;13.75;12.40;;;15.50;84.50;;;;;;5034916;29;20438;-73
2021/08/07 03:40:22;;;;;;;14.07;12.77;;;15.40;84.90;;;;;;5036271;29;20048;-71
2021/08/07 03:42:57;;;;;;;14.25;12.88;;;15.40;85.00;;;;;;5034731;29;20049;-71
2021/08/07 03:45:31;;;;;;;13.52;12.40;;;15.40;84.70;;;;;;5043853;29;20052;-72
2021/08/07 03:48:06;;;;;;;14.75;13.00;;;15.40;84.90;;;;;;5032314;29;20514;-71
2021/08/07 03:50:44;;;;;;;13.38;12.38;;;15.40;84.60;;;;;;5033675;29;20758;-71
2021/08/07 03:53:21;;;;;;;14.43;13.32;;;15.40;84.20;;;;;;5037479;29;20140;-71
2021/08/07 03:55:57;;;;;;;13.80;12.68;;;15.30;84.20;;;;;;5039453;29;20048;-71
2021/08/07 03:58:29;;;;;;;13.38;12.27;;;15.30;83.90;;;;;;5027547;29;20424;-70
2021/08/07 04:01:14;;;;;;;13.32;12.23;;;15.20;84.10;;;;;;5033439;29;20049;-70
2021/08/07 04:03:46;;;;;;;14.15;12.85;;;15.20;84.10;;;;;;5034040;29;20064;-70
2021/08/07 04:06:41;;;;;;;13.77;12.77;;;15.10;84.20;;;;;;5039893;29;20083;-70
2021/08/07 04:09:18;;;;;;;13.90;12.75;;;15.10;84.50;;;;;;5036773;29;20053;-70
2021/08/07 04:11:52;;;;;;;13.70;12.52;;;15.10;84.50;;;;;;5047140;29;20049;-71
2021/08/07 04:14:24;;;;;;;13.77;12.68;;;15.10;85.30;;;;;;5047726;29;20064;-70
2021/08/07 04:16:56;;;;;;;13.85;12.63;;;15.00;85.60;;;;;;5045912;29;20052;-71
2021/08/07 04:19:32;;;;;;;13.57;12.48;;;14.90;85.40;;;;;;5032388;29;20064;-70
2021/08/07 04:22:12;;;;;;;;;;;14.90;85.90;;;;;;5042208;29;20052;-70
2021/08/07 04:24:47;;;;;;;13.35;12.35;;;14.90;86.40;;;;;;5036548;29;20505;-71
2021/08/07 04:27:20;;;;;;;13.95;12.73;;;14.90;86.90;;;;;;5049681;29;20140;-72
2021/08/07 04:29:54;;;;;;;14.98;12.38;;;14.80;88.70;;;;;;5046707;29;20096;-70
2021/08/07 04:32:26;;;;;;;14.43;13.23;;;14.70;89.50;;;;;;5033628;29;20140;-71
2021/08/07 04:35:05;;;;;;;13.57;12.43;;;14.60;89.90;;;;;;5030344;29;20045;-70
2021/08/07 04:37:51;;;;;;;14.63;13.38;;;14.60;89.30;;;;;;5049582;29;20076;-70
2021/08/07 04:40:31;;;;;;;13.52;12.43;;;14.60;89.00;;;;;;5040093;29;20047;-70
2021/08/07 04:43:10;;;;;;;15.93;12.48;;;14.70;88.50;;;;;;5040354;29;20049;-70
2021/08/07 04:45:42;;;;;;;13.43;12.30;;;14.80;88.40;;;;;;5034978;29;20048;-70
2021/08/07 04:48:17;;;;;;;13.57;12.50;;;14.80;87.70;;;;;;5045586;29;20062;-70
2021/08/07 04:50:55;;;;;;;13.55;12.35;;;14.80;88.40;;;;;;5027518;29;20398;-71
2021/08/07 04:53:28;;;;;;;13.65;12.25;;;14.90;88.30;;;;;;5031501;29;20076;-70
2021/08/07 04:56:06;;;;;;;13.40;12.13;;;15.00;87.80;;;;;;5037362;29;20059;-72
2021/08/07 04:58:39;;;;;;;13.50;12.40;;;15.00;88.20;;;;;;5036710;29;20052;-69
2021/08/07 05:01:12;;;;;;;13.88;12.77;;;15.00;87.90;;;;;;5030777;29;20060;-71
2021/08/07 05:03:45;;;;;;;13.23;12.13;;;15.10;88.10;;;;;;5032932;29;20076;-70
2021/08/07 05:06:21;;;;;;;14.00;12.75;;;15.20;87.70;;;;;;5032899;29;20045;-72
2021/08/07 05:08:53;;;;;;;13.85;12.73;;;15.30;87.80;;;;;;5033998;29;20048;-70
2021/08/07 05:11:29;;;;;;;14.40;13.30;;;15.50;87.60;;;;;;5037167;29;20448;-71
2021/08/07 05:14:02;;;;;;;13.77;12.15;;;15.50;87.20;;;;;;5030916;29;20060;-72
2021/08/07 05:16:34;;;;;;;14.65;13.52;;;15.50;87.40;;;;;;5047066;29;20123;-70
2021/08/07 05:19:07;;;;;;;13.65;12.52;;;15.50;87.70;;;;;;5046989;29;20156;-70
2021/08/07 05:21:39;;;;;;;13.80;12.80;;;15.50;87.60;;;;;;5032615;29;20051;-70
2021/08/07 05:24:11;;;;;;;14.20;13.00;;;15.50;87.10;;;;;;5045719;29;20060;-70
2021/08/07 05:26:45;;;;;;;13.43;12.32;;;15.60;87.50;;;;;;5027378;29;20044;-71
2021/08/07 05:29:17;;;;;;;14.43;13.15;;;15.50;87.80;;;;;;5048583;29;20048;-71
2021/08/07 05:31:51;;;;;;;13.43;12.32;;;15.50;87.90;;;;;;5035740;29;20075;-69
2021/08/07 05:34:23;;;;;;;13.68;12.43;;;15.50;87.50;;;;;;5047430;29;20112;-70
2021/08/07 05:36:55;;;;;;;14.10;12.82;;;15.70;87.10;;;;;;5047351;29;20053;-70
2021/08/07 05:39:27;;;;;;;13.63;12.63;;;15.90;87.00;;;;;;5045218;29;20045;-69
2021/08/07 05:42:00;;;;;;;14.02;12.82;;;15.90;86.70;;;;;;5029744;29;20633;-71
2021/08/07 05:44:32;;;;;;;14.38;13.15;;;16.10;86.50;;;;;;5043002;29;20423;-70
2021/08/07 05:47:04;;;;;;;14.00;12.88;;;16.20;86.60;;;;;;5044727;29;20908;-69
2021/08/07 05:49:36;;;;;;;13.60;12.50;;;16.20;86.40;;;;;;5049596;29;20464;-70
2021/08/07 05:52:10;;;;;;;13.73;12.70;;;16.30;86.30;;;;;;5030895;29;20044;-70
2021/08/07 05:54:42;;;;;;;14.65;13.40;;;16.40;86.00;;;;;;5029796;29;20048;-70
2021/08/07 05:57:14;;;;;;;14.18;12.85;;;16.50;86.00;;;;;;5036845;29;20056;-72
2021/08/07 05:59:47;;;;;;;14.13;12.90;;;16.60;85.70;;;;;;5029533;29;20041;-73
2021/08/07 06:02:19;;;;;;;14.40;13.30;;;16.70;85.70;;;;;;5000629;29;20049;-71
2021/08/07 06:04:54;;;;;;;14.75;13.38;;;16.80;84.80;;;;;;5033448;29;20045;-71
2021/08/07 06:07:26;;;;;;;14.95;13.55;;;16.90;85.00;;;;;;5035775;29;20479;-73
2021/08/07 06:09:58;;;;;;;15.02;13.68;;;17.00;84.60;;;;;;5044893;29;20100;-73
2021/08/07 06:12:31;;;;;;;15.18;14.02;;;17.10;84.00;;;;;;5045785;29;20081;-74
2021/08/07 06:15:04;;;;;;;14.73;13.48;;;17.10;84.50;;;;;;5047791;29;20408;-74
2021/08/07 06:17:39;;;;;;;15.73;14.43;;;17.20;83.30;;;;;;5033148;29;20084;-73
2021/08/07 06:20:14;;;;;;;15.60;14.10;;;17.20;83.70;;;;;;5050223;29;20072;-72
2021/08/07 06:22:50;;;;;;;14.77;13.68;;;17.30;83.30;;;;;;5028041;29;20052;-73
2021/08/07 06:25:23;;;;;;;15.40;14.20;;;17.40;83.00;;;;;;5038687;29;20468;-73
2021/08/07 06:27:56;;;;;;;14.45;13.35;;;17.60;83.50;;;;;;5048866;29;20530;-73
2021/08/07 06:30:30;;;;;;;15.35;14.15;;;17.80;83.00;;;;;;5049760;29;20040;-73
2021/08/07 06:33:06;;;;;;;15.43;14.13;;;18.00;82.10;;;;;;5049056;29;20040;-72
2021/08/07 06:35:39;;;;;;;15.48;14.18;;;18.20;81.20;;;;;;5034652;29;20044;-74
2021/08/07 06:38:11;;;;;;;15.02;13.93;;;18.40;81.80;;;;;;5047508;29;20052;-75
2021/08/07 06:40:43;;;;;;;15.23;13.85;;;18.50;81.20;;;;;;5024968;29;20123;-73
2021/08/07 06:43:19;;;;;;;16.35;15.05;;;18.70;80.80;;;;;;5039245;29;20076;-73
2021/08/07 06:46:14;;;;;;;15.95;14.65;;;18.70;80.70;;;;;;5041513;29;20163;-73
2021/08/07 06:48:47;;;;;;;15.85;14.63;;;18.80;80.00;;;;;;5048324;29;20107;-75
2021/08/07 06:51:19;;;;;;;15.52;14.23;;;18.90;80.00;;;;;;5049529;29;20732;-74
2021/08/07 06:53:51;;;;;;;15.95;14.85;;;18.90;80.50;;;;;;5048388;29;20127;-74
2021/08/07 06:56:24;;;;;;;16.00;14.70;;;19.00;79.60;;;;;;5034175;29;20253;-73
2021/08/07 06:58:56;;;;;;;16.88;15.57;;;19.10;79.50;;;;;;5036315;29;20622;-74
2021/08/07 07:01:28;;;;;;;17.75;16.38;;;19.30;79.40;;;;;;5032776;29;20052;-73
2021/08/07 07:04:00;;;;;;;16.45;15.35;;;19.40;78.80;;;;;;5045730;29;20105;-73
2021/08/07 07:06:33;;;;;;;16.52;15.23;;;19.60;78.40;;;;;;5030312;29;20041;-74
2021/08/07 07:09:05;;;;;;;16.95;15.65;;;19.80;78.30;;;;;;5038074;29;20049;-74
2021/08/07 07:11:37;;;;;;;16.48;15.05;;;19.80;76.60;;;;;;5046860;29;20453;-73
2021/08/07 07:14:09;;;;;;;17.50;16.20;;;19.90;76.40;;;;;;5024629;29;20056;-73
2021/08/07 07:16:42;;;;;;;16.70;15.50;;;20.00;75.20;;;;;;5038168;29;20052;-75
2021/08/07 07:19:15;;;;;;;17.60;16.20;;;20.10;76.60;;;;;;5032274;29;20045;-74
2021/08/07 07:21:49;;;;;;;16.70;15.57;;;20.20;76.10;;;;;;5042769;29;20051;-74
2021/08/07 07:24:21;;;;;;;16.85;15.55;;;20.40;76.20;;;;;;5048273;29;20300;-74
2021/08/07 07:26:53;;;;;;;16.50;15.27;;;20.60;77.50;;;;;;5042427;29;20051;-74
2021/08/07 07:29:26;;;;;;;17.85;16.45;;;20.70;73.40;;;;;;5047416;29;20049;-73
2021/08/07 07:32:00;;;;;;;16.70;15.40;;;20.80;74.20;;;;;;5046501;29;20433;-74
2021/08/07 07:34:32;;;;;;;16.92;15.63;;;20.70;71.90;;;;;;5046628;29;20055;-73
2021/08/07 07:37:06;;;;;;;16.50;15.27;;;20.80;73.00;;;;;;5032765;29;20064;-73
2021/08/07 07:39:39;;;;;;;16.35;15.13;;;21.00;74.30;;;;;;5024900;29;20044;-73
2021/08/07 07:42:12;;;;;;;17.25;15.77;;;21.20;72.50;;;;;;5040113;29;20419;-74
2021/08/07 07:44:45;;;;;;;15.73;14.55;;;21.20;70.90;;;;;;5042840;29;20053;-73
2021/08/07 07:47:17;;;;;;;17.80;16.40;;;21.20;74.00;;;;;;5048694;29;20112;-75
2021/08/07 07:49:48;;;;;;;17.85;16.40;;;21.40;72.20;;;;;;5035185;29;20096;-74
2021/08/07 07:52:23;;;;;;;17.30;15.98;;;21.50;71.90;;;;;;5047026;29;20038;-74
2021/08/07 07:54:56;;;;;;;17.25;15.95;;;21.40;71.50;;;;;;5036406;29;20117;-73
2021/08/07 07:57:28;;;;;;;17.83;16.52;;;21.50;71.40;;;;;;5047633;29;20420;-74
2021/08/07 08:00:00;;;;;;;17.65;16.23;;;21.60;70.00;;;;;;5047352;29;20059;-73
2021/08/07 08:02:35;;;;;;;18.25;16.65;;;21.70;72.50;;;;;;5035257;29;20511;-74
2021/08/07 08:05:07;;;;;;;17.40;16.17;;;21.90;72.00;;;;;;5034758;29;20164;-73
2021/08/07 08:07:42;;;;;;;17.40;16.08;;;22.00;69.70;;;;;;5035827;29;20060;-74
2021/08/07 08:10:15;;;;;;;18.25;16.65;;;22.00;71.50;;;;;;5031733;29;20044;-74
2021/08/07 08:12:47;;;;;;;17.50;16.27;;;22.00;70.50;;;;;;5034655;29;20045;-75
2021/08/07 08:15:20;;;;;;;17.70;16.38;;;22.10;68.70;;;;;;5028483;29;20534;-74
2021/08/07 08:17:53;;;;;;;17.38;16.17;;;22.10;67.60;;;;;;5030405;29;20123;-73
2021/08/07 08:20:25;;;;;;;17.25;16.05;;;22.30;68.20;;;;;;5030007;29;20045;-74
2021/08/07 08:22:57;;;;;;;17.63;16.33;;;22.30;68.00;;;;;;5016001;29;20041;-75
2021/08/07 08:25:29;;;;;;;17.90;16.63;;;22.30;67.60;;;;;;5039775;29;20049;-74
2021/08/07 08:28:01;;;;;;;17.75;16.45;;;22.40;68.80;;;;;;5046087;29;20052;-75
2021/08/07 08:30:35;;;;;;;17.08;15.68;;;22.50;68.00;;;;;;5047880;29;20614;-74
2021/08/07 08:33:08;;;;;;;16.80;15.60;;;22.50;69.90;;;;;;5032951;29;20048;-73
2021/08/07 08:35:41;;;;;;;16.58;15.38;;;22.40;67.70;;;;;;5034441;29;20045;-74
2021/08/07 08:38:14;;;;;;;16.98;15.68;;;22.50;70.00;;;;;;5046154;29;20049;-74
2021/08/07 08:40:46;;;;;;;17.83;16.52;;;22.60;70.50;;;;;;5047911;29;21021;-75
2021/08/07 08:43:21;;;;;;;16.30;15.15;;;22.80;70.90;;;;;;5033791;29;20057;-74
2021/08/07 08:45:54;;;;;;;16.77;15.57;;;22.90;70.10;;;;;;5031318;29;20037;-75
2021/08/07 08:48:29;;;;;;;16.67;15.48;;;22.80;66.20;;;;;;5028500;29;20167;-74
2021/08/07 08:51:04;;;;;;;17.02;15.73;;;22.70;67.90;;;;;;5028313;29;20052;-74
2021/08/07 08:53:38;;;;;;;16.55;15.45;;;22.50;67.30;;;;;;5034427;29;20048;-74
2021/08/07 08:56:11;;;;;;;17.50;16.20;;;22.30;66.30;;;;;;5030703;29;20401;-74
2021/08/07 08:58:44;;;;;;;17.15;15.88;;;22.40;68.00;;;;;;5050934;29;20139;-74
2021/08/07 09:01:17;;;;;;;17.38;16.17;;;22.40;68.50;;;;;;5050706;29;20049;-74
2021/08/07 09:03:49;;;;;;;17.15;15.85;;;22.50;68.90;;;;;;5047074;29;20049;-74
2021/08/07 09:06:23;;;;;;;17.08;15.82;;;22.50;68.30;;;;;;5020969;29;20057;-74
2021/08/07 09:09:09;;;;;;;16.95;15.75;;;22.70;70.90;;;;;;5047073;29;20773;-74
2021/08/07 09:11:52;;;;;;;16.95;15.55;;;22.80;64.40;;;;;;5031375;29;20511;-75
2021/08/07 09:14:42;;;;;;;18.00;16.60;;;22.80;63.30;;;;;;5032023;29;20055;-76
2021/08/07 09:17:20;;;;;;;17.48;16.27;;;22.80;65.90;;;;;;5043731;29;20045;-74
2021/08/07 09:19:59;;;;;;;18.05;16.75;;;23.00;66.50;;;;;;5034413;29;20055;-75
2021/08/07 09:22:33;;;;;;;18.60;17.17;;;23.30;65.20;;;;;;5032152;29;20051;-76
2021/08/07 09:25:16;;;;;;;18.58;17.27;;;23.60;63.00;;;;;;5037447;29;20155;-75
2021/08/07 09:27:53;;;;;;;18.50;17.15;;;23.90;63.40;;;;;;5020378;29;20450;-76
2021/08/07 09:30:37;;;;;;;18.13;16.83;;;23.90;60.20;;;;;;5043210;29;20084;-76
2021/08/07 09:33:22;;;;;;;18.55;17.25;;;24.00;59.80;;;;;;5032051;29;20056;-75
2021/08/07 09:35:54;;;;;;;18.08;16.77;;;24.20;62.80;;;;;;5045105;29;20124;-76
2021/08/07 09:38:30;;;;;;;18.48;16.90;;;24.30;61.70;;;;;;5035417;29;20049;-76
2021/08/07 09:41:11;;;;;;;18.35;17.02;;;24.40;59.30;;;;;;5034933;29;20052;-76
2021/08/07 09:43:52;;;;;;;18.10;16.80;;;24.60;58.30;;;;;;5021731;29;20060;-76
2021/08/07 09:46:27;;;;;;;18.00;16.70;;;24.70;60.50;;;;;;5035817;29;20073;-76
2021/08/07 09:49:09;;;;;;;18.02;16.75;;;24.90;58.20;;;;;;5032896;29;20060;-75
2021/08/07 09:51:41;;;;;;;18.95;17.55;;;25.00;62.20;;;;;;5046506;29;20451;-75
2021/08/07 09:54:18;;;;;;;17.98;16.67;;;25.10;59.30;;;;;;5034191;29;20435;-75
2021/08/07 09:56:57;;;;;;;18.85;17.55;;;25.20;60.00;;;;;;5036867;29;20574;-74
2021/08/07 09:59:43;;;;;;;19.20;17.67;;;25.20;55.70;;;;;;5021967;29;20060;-74
2021/08/07 10:02:31;;;;;;;18.55;17.25;;;25.20;56.50;;;;;;5023151;29;20040;-73
2021/08/07 10:05:11;;;;;;;18.83;17.42;;;25.30;55.80;;;;;;5030663;29;20057;-72
2021/08/07 10:08:03;;;;;;;18.35;16.95;;;25.40;56.40;;;;;;5033710;29;20538;-74
2021/08/07 10:11:12;;;;;;;18.83;17.48;;;25.50;59.70;;;;;;5035904;29;20049;-74
2021/08/07 10:13:47;;;;;;;17.80;16.50;;;25.60;60.80;;;;;;5034029;29;20419;-74
2021/08/07 10:16:26;;;;;;;18.30;17.00;;;25.70;56.40;;;;;;5033298;29;20997;-73
2021/08/07 10:19:00;;;;;;;18.75;17.35;;;25.70;59.10;;;;;;5047235;29;20606;-74
2021/08/07 10:21:33;;;;;;;17.92;16.63;;;25.80;58.30;;;;;;5035653;29;20541;-75
2021/08/07 10:24:08;;;;;;;18.45;17.15;;;25.90;56.10;;;;;;5031592;29;20048;-76
2021/08/07 10:26:41;;;;;;;18.77;17.38;;;25.80;56.80;;;;;;5045936;29;20053;-75
2021/08/07 10:29:17;;;;;;;18.80;17.30;;;25.80;57.10;;;;;;5030167;29;20071;-73
2021/08/07 10:31:52;;;;;;;18.60;17.20;;;25.90;52.80;;;;;;5033596;29;20045;-73
2021/08/07 10:34:24;;;;;;;18.70;17.33;;;25.90;54.60;;;;;;5045989;29;20645;-74
2021/08/07 10:36:57;;;;;;;18.50;17.10;;;26.00;55.40;;;;;;5046510;29;20100;-74
2021/08/07 10:39:33;;;;;;;18.08;16.63;;;26.00;55.50;;;;;;5036035;29;20399;-74
2021/08/07 10:42:07;;;;;;;18.30;16.98;;;26.00;53.50;;;;;;5028739;29;20049;-75
2021/08/07 10:44:43;;;;;;;18.60;17.30;;;26.00;54.00;;;;;;5044205;29;20044;-75
2021/08/07 10:47:53;;;;;;;18.38;16.95;;;26.00;53.40;;;;;;5015451;29;20411;-76
2021/08/07 10:50:28;;;;;;;18.73;17.30;;;26.00;56.00;;;;;;5036392;29;20049;-77
2021/08/07 10:53:25;;;;;;;18.73;17.42;;;26.10;55.10;;;;;;5032765;29;20057;-76
2021/08/07 10:55:57;;;;;;;17.88;16.58;;;26.10;52.00;;;;;;5047806;29;20122;-77
2021/08/07 10:58:41;;;;;;;17.63;16.25;;;25.90;54.50;;;;;;5048154;29;20040;-76
2021/08/07 11:01:33;;;;;;;17.73;16.42;;;25.80;53.30;;;;;;5048389;29;20061;-76
2021/08/07 11:04:16;;;;;;;18.17;16.88;;;25.80;53.90;;;;;;5047511;29;20044;-76
2021/08/07 11:06:49;;;;;;;18.65;17.30;;;25.80;54.60;;;;;;5046113;29;20144;-76
2021/08/07 11:09:28;;;;;;;17.90;16.40;;;25.80;55.80;;;;;;5038775;29;20119;-76
2021/08/07 11:12:06;;;;;;;17.58;16.38;;;26.00;56.40;;;;;;5050450;29;20644;-76
2021/08/07 11:14:45;;;;;;;18.00;16.70;;;26.00;55.30;;;;;;5037078;29;20151;-75
2021/08/07 11:17:17;;;;;;;18.70;17.20;;;25.90;53.30;;;;;;5050392;29;20053;-76
2021/08/07 11:20:07;;;;;;;18.52;17.23;;;25.80;54.20;;;;;;5048266;29;20048;-76
2021/08/07 11:22:40;;;;;;;18.23;16.83;;;25.80;52.60;;;;;;5051751;29;20052;-75
2021/08/07 11:25:17;;;;;;;17.15;15.85;;;25.80;55.50;;;;;;5040610;29;20135;-76
2021/08/07 11:27:52;;;;;;;17.67;16.38;;;25.80;55.10;;;;;;5034848;29;20123;-76
2021/08/07 11:30:29;;;;;;;16.52;15.30;;;25.70;54.80;;;;;;5051261;29;20607;-75
2021/08/07 11:33:18;;;;;;;17.00;15.70;;;25.60;54.70;;;;;;5033804;29;20064;-76
2021/08/07 11:35:52;;;;;;;17.17;15.88;;;25.60;55.40;;;;;;5036502;29;20127;-78
2021/08/07 11:38:25;;;;;;;17.70;16.50;;;25.70;54.40;;;;;;5051734;29;20052;-75
2021/08/07 11:41:08;;;;;;;17.17;15.88;;;25.70;55.30;;;;;;5034565;29;20128;-76
2021/08/07 11:43:43;;;;;;;17.52;16.23;;;25.80;55.00;;;;;;5049757;29;20081;-76
2021/08/07 11:46:17;;;;;;;17.52;16.23;;;25.90;54.00;;;;;;5048704;29;20131;-78
2021/08/07 11:48:53;;;;;;;16.55;15.32;;;25.90;54.20;;;;;;5049685;29;20052;-77
2021/08/07 11:51:27;;;;;;;17.00;15.80;;;25.80;55.30;;;;;;5046309;29;20423;-74
2021/08/07 11:53:59;;;;;;;16.95;15.75;;;25.80;55.30;;;;;;5048226;29;20068;-74
2021/08/07 11:56:35;;;;;;;16.70;15.50;;;25.80;57.10;;;;;;5048228;29;20837;-74
2021/08/07 11:59:07;;;;;;;17.10;15.90;;;25.90;54.80;;;;;;5049210;29;20052;-74
2021/08/07 12:01:39;;;;;;;16.42;15.23;;;25.80;55.00;;;;;;5050422;29;20108;-74
2021/08/07 12:04:12;;;;;;;16.90;15.65;;;25.80;53.70;;;;;;5040034;29;20128;-74
2021/08/07 12:06:45;;;;;;;17.33;16.13;;;25.80;56.90;;;;;;5049276;29;20623;-75
2021/08/07 12:09:18;;;;;;;17.08;15.88;;;25.70;57.10;;;;;;5049096;29;20049;-75
2021/08/07 12:11:50;;;;;;;16.83;15.63;;;25.70;59.80;;;;;;5050601;29;20132;-75
2021/08/07 12:14:26;;;;;;;17.48;16.08;;;25.60;58.50;;;;;;5047946;29;20139;-74
2021/08/07 12:17:05;;;;;;;17.92;16.63;;;25.60;60.50;;;;;;5049684;29;20051;-75
2021/08/07 12:19:37;;;;;;;16.17;14.98;;;25.70;59.60;;;;;;5042062;29;20040;-75
2021/08/07 12:22:09;;;;;;;16.92;15.70;;;25.80;57.90;;;;;;5047264;29;20056;-74
2021/08/07 12:24:41;;;;;;;17.45;16.17;;;25.70;57.60;;;;;;5049522;29;20693;-74
2021/08/07 12:27:13;;;;;;;17.00;15.70;;;25.70;58.30;;;;;;5050912;29;20489;-75
2021/08/07 12:29:45;;;;;;;16.52;15.32;;;25.70;56.50;;;;;;5048115;29;20534;-74
2021/08/07 12:32:17;;;;;;;18.00;16.42;;;25.70;57.10;;;;;;5048181;29;20139;-74
2021/08/07 12:34:49;;;;;;;17.60;16.15;;;25.70;58.70;;;;;;5050680;29;20144;-74
2021/08/07 12:37:21;;;;;;;17.35;16.05;;;25.80;58.50;;;;;;5047370;29;20132;-75
2021/08/07 12:39:54;;;;;;;17.50;16.13;;;25.80;57.30;;;;;;5035591;29;20076;-74
2021/08/07 12:42:28;;;;;;;17.48;16.00;;;25.80;57.10;;;;;;5049518;29;20049;-74
2021/08/07 12:45:09;;;;;;;17.10;15.80;;;25.90;57.20;;;;;;5047468;29;20045;-74
2021/08/07 12:47:42;;;;;;;16.10;14.90;;;25.80;57.50;;;;;;5036813;29;20105;-74
2021/08/07 12:50:16;;;;;;;16.55;15.30;;;25.70;57.00;;;;;;5051603;29;20044;-75
2021/08/07 12:52:59;;;;;;;16.70;15.30;;;25.50;56.70;;;;;;5032390;29;20052;-75
2021/08/07 12:55:46;;;;;;;16.88;15.68;;;25.40;58.30;;;;;;5024608;29;20680;-74
2021/08/07 12:58:20;;;;;;;17.13;15.82;;;25.40;58.90;;;;;;5026239;29;20479;-75
2021/08/07 13:01:07;;;;;;;17.38;16.08;;;25.80;56.70;;;;;;5044179;29;20551;-75
2021/08/07 13:04:10;;;;;;;17.58;16.27;;;26.10;56.80;;;;;;5045869;29;20104;-75
2021/08/07 13:06:58;;;;;;;17.23;15.93;;;26.20;55.00;;;;;;5046953;29;20049;-73
2021/08/07 13:09:32;;;;;;;17.00;15.75;;;26.10;54.90;;;;;;5047495;29;20644;-74
2021/08/07 13:12:17;;;;;;;16.73;15.52;;;26.00;54.20;;;;;;5047621;29;20056;-74